sensor_id;sensor_type;location;lat;lon;timestamp;P1;durP1;ratioP1;P2;durP2;ratioP2
57752;SDS011;43583;53.132;6.574;2022-09-12T00:01:55;4.40;;;3.80;;
57752;SDS011;43583;53.132;6.574;2022-09-12T00:04:21;4.78;;;4.30;;
57752;SDS011;43583;53.132;6.574;2022-09-12T00:06:47;7.38;;;5.30;;
57752;SDS011;43583;53.132;6.574;2022-09-12T00:09:13;3.97;;;3.58;;
57752;SDS011;43583;53.132;6.574;2022-09-12T00:11:39;6.68;;;4.05;;
57752;SDS011;43583;53.132;6.574;2022-09-12T00:14:13;4.70;;;4.15;;
57752;SDS011;43583;53.132;6.574;2022-09-12T00:16:40;4.03;;;3.63;;
57752;SDS011;43583;53.132;6.574;2022-09-12T00:19:10;4.88;;;4.35;;
57752;SDS011;43583;53.132;6.574;2022-09-12T00:21:39;5.05;;;4.55;;
57752;SDS011;43583;53.132;6.574;2022-09-12T00:24:05;4.13;;;3.72;;
57752;SDS011;43583;53.132;6.574;2022-09-12T00:26:32;6.40;;;4.78;;
57752;SDS011;43583;53.132;6.574;2022-09-12T00:28:57;4.57;;;4.15;;
57752;SDS011;43583;53.132;6.574;2022-09-12T00:31:24;5.88;;;5.28;;
57752;SDS011;43583;53.132;6.574;2022-09-12T00:33:50;5.80;;;4.72;;
57752;SDS011;43583;53.132;6.574;2022-09-12T00:36:18;4.95;;;4.45;;
57752;SDS011;43583;53.132;6.574;2022-09-12T00:38:47;5.03;;;4.53;;
57752;SDS011;43583;53.132;6.574;2022-09-12T00:41:15;7.10;;;5.28;;
57752;SDS011;43583;53.132;6.574;2022-09-12T00:43:45;4.72;;;4.05;;
57752;SDS011;43583;53.132;6.574;2022-09-12T00:49:03;5.20;;;3.75;;
57752;SDS011;43583;53.132;6.574;2022-09-12T00:51:38;16.15;;;4.63;;
57752;SDS011;43583;53.132;6.574;2022-09-12T00:54:27;5.95;;;5.32;;
57752;SDS011;43583;53.132;6.574;2022-09-12T00:56:57;5.38;;;4.63;;
57752;SDS011;43583;53.132;6.574;2022-09-12T00:59:31;5.55;;;4.82;;
57752;SDS011;43583;53.132;6.574;2022-09-12T01:02:03;5.15;;;4.28;;
57752;SDS011;43583;53.132;6.574;2022-09-12T01:04:30;5.20;;;4.63;;
57752;SDS011;43583;53.132;6.574;2022-09-12T01:06:56;7.20;;;4.05;;
57752;SDS011;43583;53.132;6.574;2022-09-12T01:09:23;4.65;;;4.25;;
57752;SDS011;43583;53.132;6.574;2022-09-12T01:11:50;4.93;;;4.40;;
57752;SDS011;43583;53.132;6.574;2022-09-12T01:14:17;5.03;;;4.50;;
57752;SDS011;43583;53.132;6.574;2022-09-12T01:16:44;6.75;;;6.05;;
57752;SDS011;43583;53.132;6.574;2022-09-12T01:22:18;5.90;;;4.93;;
57752;SDS011;43583;53.132;6.574;2022-09-12T01:30:54;5.60;;;5.03;;
57752;SDS011;43583;53.132;6.574;2022-09-12T01:38:49;8.52;;;5.85;;
57752;SDS011;43583;53.132;6.574;2022-09-12T01:41:24;8.18;;;7.32;;
57752;SDS011;43583;53.132;6.574;2022-09-12T01:49:26;8.80;;;7.18;;
57752;SDS011;43583;53.132;6.574;2022-09-12T01:54:49;15.55;;;7.55;;
57752;SDS011;43583;53.132;6.574;2022-09-12T01:57:42;8.80;;;7.90;;
57752;SDS011;43583;53.132;6.574;2022-09-12T02:00:13;8.32;;;6.25;;
57752;SDS011;43583;53.132;6.574;2022-09-12T02:02:44;8.90;;;7.30;;
57752;SDS011;43583;53.132;6.574;2022-09-12T02:05:29;8.13;;;6.38;;
57752;SDS011;43583;53.132;6.574;2022-09-12T02:08:09;7.97;;;7.18;;
57752;SDS011;43583;53.132;6.574;2022-09-12T02:10:41;6.70;;;5.57;;
57752;SDS011;43583;53.132;6.574;2022-09-12T02:15:58;7.15;;;6.03;;
57752;SDS011;43583;53.132;6.574;2022-09-12T02:18:29;7.18;;;6.07;;
57752;SDS011;43583;53.132;6.574;2022-09-12T02:20:58;7.97;;;7.18;;
57752;SDS011;43583;53.132;6.574;2022-09-12T02:23:26;9.68;;;8.38;;
57752;SDS011;43583;53.132;6.574;2022-09-12T02:26:01;10.35;;;8.95;;
57752;SDS011;43583;53.132;6.574;2022-09-12T02:38:51;11.35;;;7.63;;
57752;SDS011;43583;53.132;6.574;2022-09-12T02:41:18;8.73;;;7.50;;
57752;SDS011;43583;53.132;6.574;2022-09-12T02:43:45;8.68;;;6.65;;
57752;SDS011;43583;53.132;6.574;2022-09-12T02:46:15;7.63;;;6.40;;
57752;SDS011;43583;53.132;6.574;2022-09-12T02:48:46;8.98;;;6.75;;
57752;SDS011;43583;53.132;6.574;2022-09-12T02:51:11;11.32;;;6.72;;
57752;SDS011;43583;53.132;6.574;2022-09-12T02:53:38;8.93;;;7.20;;
57752;SDS011;43583;53.132;6.574;2022-09-12T02:56:04;7.88;;;7.07;;
57752;SDS011;43583;53.132;6.574;2022-09-12T02:58:34;8.15;;;7.32;;
57752;SDS011;43583;53.132;6.574;2022-09-12T03:03:53;188.52;;;16.20;;
57752;SDS011;43583;53.132;6.574;2022-09-12T03:15:09;13.43;;;8.75;;
57752;SDS011;43583;53.132;6.574;2022-09-12T03:17:46;9.00;;;7.57;;
57752;SDS011;43583;53.132;6.574;2022-09-12T03:28:49;11.20;;;8.38;;
57752;SDS011;43583;53.132;6.574;2022-09-12T03:31:18;15.40;;;9.10;;
57752;SDS011;43583;53.132;6.574;2022-09-12T03:33:44;8.13;;;7.28;;
57752;SDS011;43583;53.132;6.574;2022-09-12T03:36:21;8.75;;;7.55;;
57752;SDS011;43583;53.132;6.574;2022-09-12T03:38:50;11.15;;;8.45;;
57752;SDS011;43583;53.132;6.574;2022-09-12T03:41:15;12.70;;;8.77;;
57752;SDS011;43583;53.132;6.574;2022-09-12T03:43:42;11.68;;;8.10;;
57752;SDS011;43583;53.132;6.574;2022-09-12T03:46:08;11.70;;;8.63;;
57752;SDS011;43583;53.132;6.574;2022-09-12T03:48:33;11.88;;;8.25;;
57752;SDS011;43583;53.132;6.574;2022-09-12T03:51:03;13.75;;;7.53;;
57752;SDS011;43583;53.132;6.574;2022-09-12T03:53:30;11.02;;;7.70;;
57752;SDS011;43583;53.132;6.574;2022-09-12T03:55:56;10.15;;;6.90;;
57752;SDS011;43583;53.132;6.574;2022-09-12T03:58:23;7.85;;;6.05;;
57752;SDS011;43583;53.132;6.574;2022-09-12T04:00:53;10.15;;;5.57;;
57752;SDS011;43583;53.132;6.574;2022-09-12T04:03:18;7.80;;;5.68;;
57752;SDS011;43583;53.132;6.574;2022-09-12T04:05:44;71.32;;;9.07;;
57752;SDS011;43583;53.132;6.574;2022-09-12T04:08:11;103.72;;;13.85;;
57752;SDS011;43583;53.132;6.574;2022-09-12T04:10:36;16.75;;;7.82;;
57752;SDS011;43583;53.132;6.574;2022-09-12T04:13:02;11.68;;;8.60;;
57752;SDS011;43583;53.132;6.574;2022-09-12T04:15:27;13.90;;;9.13;;
57752;SDS011;43583;53.132;6.574;2022-09-12T04:17:53;13.38;;;9.38;;
57752;SDS011;43583;53.132;6.574;2022-09-12T04:20:19;12.10;;;8.70;;
57752;SDS011;43583;53.132;6.574;2022-09-12T04:22:44;12.77;;;9.13;;
57752;SDS011;43583;53.132;6.574;2022-09-12T04:25:10;15.18;;;9.20;;
57752;SDS011;43583;53.132;6.574;2022-09-12T04:27:37;16.35;;;9.18;;
57752;SDS011;43583;53.132;6.574;2022-09-12T04:30:03;12.00;;;7.93;;
57752;SDS011;43583;53.132;6.574;2022-09-12T04:32:29;10.98;;;8.02;;
57752;SDS011;43583;53.132;6.574;2022-09-12T04:34:55;11.43;;;8.55;;
57752;SDS011;43583;53.132;6.574;2022-09-12T04:37:21;13.07;;;9.02;;
57752;SDS011;43583;53.132;6.574;2022-09-12T04:39:48;10.27;;;8.43;;
57752;SDS011;43583;53.132;6.574;2022-09-12T04:42:14;11.50;;;8.43;;
57752;SDS011;43583;53.132;6.574;2022-09-12T04:44:40;12.18;;;7.93;;
57752;SDS011;43583;53.132;6.574;2022-09-12T04:47:06;12.48;;;8.43;;
57752;SDS011;43583;53.132;6.574;2022-09-12T04:49:31;13.32;;;8.80;;
57752;SDS011;43583;53.132;6.574;2022-09-12T04:51:57;14.15;;;9.75;;
57752;SDS011;43583;53.132;6.574;2022-09-12T04:54:23;16.00;;;10.40;;
57752;SDS011;43583;53.132;6.574;2022-09-12T04:56:49;12.15;;;8.25;;
57752;SDS011;43583;53.132;6.574;2022-09-12T04:59:16;17.67;;;11.38;;
57752;SDS011;43583;53.132;6.574;2022-09-12T05:01:43;19.67;;;11.43;;
57752;SDS011;43583;53.132;6.574;2022-09-12T05:04:09;16.98;;;11.38;;
57752;SDS011;43583;53.132;6.574;2022-09-12T05:06:37;16.58;;;11.07;;
57752;SDS011;43583;53.132;6.574;2022-09-12T05:09:05;16.42;;;11.48;;
57752;SDS011;43583;53.132;6.574;2022-09-12T05:11:35;15.65;;;9.50;;
57752;SDS011;43583;53.132;6.574;2022-09-12T05:14:04;18.60;;;10.95;;
57752;SDS011;43583;53.132;6.574;2022-09-12T05:16:29;17.13;;;11.13;;
57752;SDS011;43583;53.132;6.574;2022-09-12T05:18:57;20.20;;;12.98;;
57752;SDS011;43583;53.132;6.574;2022-09-12T05:21:23;20.35;;;13.25;;
57752;SDS011;43583;53.132;6.574;2022-09-12T05:23:50;17.20;;;12.52;;
57752;SDS011;43583;53.132;6.574;2022-09-12T05:26:21;20.15;;;12.00;;
57752;SDS011;43583;53.132;6.574;2022-09-12T05:28:47;19.40;;;11.75;;
57752;SDS011;43583;53.132;6.574;2022-09-12T05:31:19;23.05;;;13.50;;
57752;SDS011;43583;53.132;6.574;2022-09-12T05:33:49;19.60;;;13.10;;
57752;SDS011;43583;53.132;6.574;2022-09-12T05:36:26;24.48;;;15.07;;
57752;SDS011;43583;53.132;6.574;2022-09-12T05:38:53;28.23;;;15.98;;
57752;SDS011;43583;53.132;6.574;2022-09-12T05:41:22;23.48;;;15.23;;
57752;SDS011;43583;53.132;6.574;2022-09-12T05:43:57;25.10;;;15.23;;
57752;SDS011;43583;53.132;6.574;2022-09-12T05:46:26;27.35;;;16.55;;
57752;SDS011;43583;53.132;6.574;2022-09-12T05:48:53;28.75;;;16.70;;
57752;SDS011;43583;53.132;6.574;2022-09-12T05:51:21;28.85;;;16.52;;
57752;SDS011;43583;53.132;6.574;2022-09-12T05:53:55;26.10;;;15.32;;
57752;SDS011;43583;53.132;6.574;2022-09-12T05:56:25;29.20;;;17.27;;
57752;SDS011;43583;53.132;6.574;2022-09-12T05:58:54;30.95;;;16.50;;
57752;SDS011;43583;53.132;6.574;2022-09-12T06:01:23;31.25;;;17.85;;
57752;SDS011;43583;53.132;6.574;2022-09-12T06:03:50;26.63;;;15.93;;
57752;SDS011;43583;53.132;6.574;2022-09-12T06:06:18;31.40;;;17.48;;
57752;SDS011;43583;53.132;6.574;2022-09-12T06:08:46;28.40;;;16.80;;
57752;SDS011;43583;53.132;6.574;2022-09-12T06:11:14;30.10;;;17.85;;
57752;SDS011;43583;53.132;6.574;2022-09-12T06:13:42;29.30;;;17.98;;
57752;SDS011;43583;53.132;6.574;2022-09-12T06:16:09;29.65;;;18.15;;
57752;SDS011;43583;53.132;6.574;2022-09-12T06:18:39;36.28;;;20.55;;
57752;SDS011;43583;53.132;6.574;2022-09-12T06:21:07;28.77;;;17.35;;
57752;SDS011;43583;53.132;6.574;2022-09-12T06:23:34;35.05;;;19.45;;
57752;SDS011;43583;53.132;6.574;2022-09-12T06:26:00;32.88;;;19.10;;
57752;SDS011;43583;53.132;6.574;2022-09-12T06:28:28;33.65;;;18.25;;
57752;SDS011;43583;53.132;6.574;2022-09-12T06:31:02;31.35;;;18.88;;
57752;SDS011;43583;53.132;6.574;2022-09-12T06:33:39;33.60;;;19.88;;
57752;SDS011;43583;53.132;6.574;2022-09-12T06:38:37;30.75;;;18.75;;
57752;SDS011;43583;53.132;6.574;2022-09-12T06:41:13;31.40;;;18.65;;
57752;SDS011;43583;53.132;6.574;2022-09-12T06:43:40;36.25;;;20.73;;
57752;SDS011;43583;53.132;6.574;2022-09-12T06:46:12;31.58;;;19.15;;
57752;SDS011;43583;53.132;6.574;2022-09-12T06:48:38;32.50;;;18.52;;
57752;SDS011;43583;53.132;6.574;2022-09-12T06:51:05;32.45;;;20.10;;
57752;SDS011;43583;53.132;6.574;2022-09-12T06:53:35;32.35;;;19.35;;
57752;SDS011;43583;53.132;6.574;2022-09-12T06:56:05;34.90;;;20.10;;
57752;SDS011;43583;53.132;6.574;2022-09-12T06:58:35;37.47;;;19.80;;
57752;SDS011;43583;53.132;6.574;2022-09-12T07:01:07;35.80;;;20.45;;
57752;SDS011;43583;53.132;6.574;2022-09-12T07:03:34;37.13;;;20.35;;
57752;SDS011;43583;53.132;6.574;2022-09-12T07:06:04;34.78;;;20.33;;
57752;SDS011;43583;53.132;6.574;2022-09-12T07:08:34;39.72;;;21.40;;
57752;SDS011;43583;53.132;6.574;2022-09-12T07:11:35;38.47;;;22.02;;
57752;SDS011;43583;53.132;6.574;2022-09-12T07:13:56;34.45;;;20.77;;
57752;SDS011;43583;53.132;6.574;2022-09-12T07:16:23;35.58;;;21.38;;
57752;SDS011;43583;53.132;6.574;2022-09-12T07:18:53;38.05;;;21.10;;
57752;SDS011;43583;53.132;6.574;2022-09-12T07:21:22;36.80;;;21.48;;
57752;SDS011;43583;53.132;6.574;2022-09-12T07:23:48;39.50;;;22.55;;
57752;SDS011;43583;53.132;6.574;2022-09-12T07:26:16;38.70;;;22.05;;
57752;SDS011;43583;53.132;6.574;2022-09-12T07:28:52;45.85;;;22.50;;
57752;SDS011;43583;53.132;6.574;2022-09-12T07:31:24;42.05;;;22.02;;
57752;SDS011;43583;53.132;6.574;2022-09-12T07:33:51;36.03;;;21.42;;
57752;SDS011;43583;53.132;6.574;2022-09-12T07:36:18;41.25;;;23.27;;
57752;SDS011;43583;53.132;6.574;2022-09-12T07:38:53;39.28;;;23.08;;
57752;SDS011;43583;53.132;6.574;2022-09-12T07:41:21;39.63;;;24.67;;
57752;SDS011;43583;53.132;6.574;2022-09-12T07:43:52;33.10;;;21.13;;
57752;SDS011;43583;53.132;6.574;2022-09-12T07:46:20;37.58;;;21.85;;
57752;SDS011;43583;53.132;6.574;2022-09-12T07:48:53;36.92;;;21.38;;
57752;SDS011;43583;53.132;6.574;2022-09-12T07:51:20;36.92;;;21.50;;
57752;SDS011;43583;53.132;6.574;2022-09-12T07:53:50;35.40;;;20.42;;
57752;SDS011;43583;53.132;6.574;2022-09-12T07:56:16;33.22;;;20.70;;
57752;SDS011;43583;53.132;6.574;2022-09-12T07:58:43;33.80;;;20.08;;
57752;SDS011;43583;53.132;6.574;2022-09-12T08:01:10;31.17;;;20.63;;
57752;SDS011;43583;53.132;6.574;2022-09-12T08:03:38;39.55;;;21.52;;
57752;SDS011;43583;53.132;6.574;2022-09-12T08:06:14;33.63;;;19.75;;
57752;SDS011;43583;53.132;6.574;2022-09-12T08:08:44;30.92;;;19.85;;
57752;SDS011;43583;53.132;6.574;2022-09-12T08:11:11;35.38;;;20.92;;
57752;SDS011;43583;53.132;6.574;2022-09-12T08:13:39;33.67;;;18.85;;
57752;SDS011;43583;53.132;6.574;2022-09-12T08:16:06;33.13;;;19.17;;
57752;SDS011;43583;53.132;6.574;2022-09-12T08:18:36;30.50;;;19.58;;
57752;SDS011;43583;53.132;6.574;2022-09-12T08:21:44;28.90;;;17.42;;
57752;SDS011;43583;53.132;6.574;2022-09-12T08:23:53;26.35;;;17.15;;
57752;SDS011;43583;53.132;6.574;2022-09-12T08:26:24;27.35;;;16.60;;
57752;SDS011;43583;53.132;6.574;2022-09-12T08:28:50;25.92;;;16.70;;
57752;SDS011;43583;53.132;6.574;2022-09-12T08:31:17;24.65;;;16.77;;
57752;SDS011;43583;53.132;6.574;2022-09-12T08:33:44;26.23;;;17.15;;
57752;SDS011;43583;53.132;6.574;2022-09-12T08:36:11;26.35;;;17.05;;
57752;SDS011;43583;53.132;6.574;2022-09-12T08:38:40;25.80;;;16.17;;
57752;SDS011;43583;53.132;6.574;2022-09-12T08:47:00;27.80;;;16.30;;
57752;SDS011;43583;53.132;6.574;2022-09-12T08:49:41;27.20;;;16.58;;
57752;SDS011;43583;53.132;6.574;2022-09-12T08:52:29;26.70;;;16.65;;
57752;SDS011;43583;53.132;6.574;2022-09-12T08:55:24;27.83;;;16.55;;
57752;SDS011;43583;53.132;6.574;2022-09-12T08:58:04;31.80;;;15.95;;
57752;SDS011;43583;53.132;6.574;2022-09-12T09:00:39;27.60;;;16.42;;
57752;SDS011;43583;53.132;6.574;2022-09-12T09:03:17;27.70;;;17.65;;
57752;SDS011;43583;53.132;6.574;2022-09-12T09:05:59;27.00;;;16.45;;
57752;SDS011;43583;53.132;6.574;2022-09-12T09:08:52;25.42;;;15.73;;
57752;SDS011;43583;53.132;6.574;2022-09-12T09:14:37;20.67;;;12.73;;
57752;SDS011;43583;53.132;6.574;2022-09-12T09:17:13;23.17;;;13.98;;
57752;SDS011;43583;53.132;6.574;2022-09-12T09:19:56;19.63;;;13.82;;
57752;SDS011;43583;53.132;6.574;2022-09-12T09:25:15;21.33;;;14.25;;
57752;SDS011;43583;53.132;6.574;2022-09-12T09:27:49;23.50;;;14.33;;
57752;SDS011;43583;53.132;6.574;2022-09-12T09:30:30;23.48;;;14.57;;
57752;SDS011;43583;53.132;6.574;2022-09-12T09:32:58;22.80;;;14.75;;
57752;SDS011;43583;53.132;6.574;2022-09-12T09:35:31;23.27;;;14.35;;
57752;SDS011;43583;53.132;6.574;2022-09-12T09:38:13;24.55;;;14.63;;
57752;SDS011;43583;53.132;6.574;2022-09-12T09:40:45;21.63;;;13.38;;
57752;SDS011;43583;53.132;6.574;2022-09-12T09:43:20;23.02;;;14.80;;
57752;SDS011;43583;53.132;6.574;2022-09-12T09:45:48;22.85;;;14.57;;
57752;SDS011;43583;53.132;6.574;2022-09-12T09:48:30;24.55;;;15.02;;
57752;SDS011;43583;53.132;6.574;2022-09-12T09:50:59;26.80;;;16.27;;
57752;SDS011;43583;53.132;6.574;2022-09-12T09:53:31;24.70;;;15.70;;
57752;SDS011;43583;53.132;6.574;2022-09-12T09:56:06;24.23;;;14.88;;
57752;SDS011;43583;53.132;6.574;2022-09-12T09:58:36;26.90;;;16.92;;
57752;SDS011;43583;53.132;6.574;2022-09-12T10:01:13;28.23;;;16.83;;
57752;SDS011;43583;53.132;6.574;2022-09-12T10:03:46;25.85;;;15.65;;
57752;SDS011;43583;53.132;6.574;2022-09-12T10:08:47;24.33;;;15.90;;
57752;SDS011;43583;53.132;6.574;2022-09-12T10:13:40;31.05;;;15.93;;
57752;SDS011;43583;53.132;6.574;2022-09-12T10:18:43;24.58;;;14.70;;
57752;SDS011;43583;53.132;6.574;2022-09-12T10:21:52;29.98;;;15.30;;
57752;SDS011;43583;53.132;6.574;2022-09-12T10:26:40;22.48;;;13.73;;
57752;SDS011;43583;53.132;6.574;2022-09-12T10:29:12;23.20;;;13.35;;
57752;SDS011;43583;53.132;6.574;2022-09-12T10:34:24;18.38;;;11.23;;
57752;SDS011;43583;53.132;6.574;2022-09-12T10:36:58;18.98;;;11.48;;
57752;SDS011;43583;53.132;6.574;2022-09-12T10:39:31;22.05;;;12.50;;
57752;SDS011;43583;53.132;6.574;2022-09-12T10:42:00;21.33;;;11.88;;
57752;SDS011;43583;53.132;6.574;2022-09-12T10:44:31;18.55;;;12.32;;
57752;SDS011;43583;53.132;6.574;2022-09-12T10:46:59;22.00;;;12.27;;
57752;SDS011;43583;53.132;6.574;2022-09-12T10:49:43;19.27;;;11.55;;
57752;SDS011;43583;53.132;6.574;2022-09-12T10:52:19;17.65;;;11.23;;
57752;SDS011;43583;53.132;6.574;2022-09-12T10:54:47;18.13;;;11.13;;
57752;SDS011;43583;53.132;6.574;2022-09-12T10:57:26;18.30;;;11.25;;
57752;SDS011;43583;53.132;6.574;2022-09-12T11:00:09;19.65;;;12.27;;
57752;SDS011;43583;53.132;6.574;2022-09-12T11:05:52;22.45;;;12.68;;
57752;SDS011;43583;53.132;6.574;2022-09-12T11:08:37;20.33;;;12.50;;
57752;SDS011;43583;53.132;6.574;2022-09-12T11:22:03;14.73;;;9.70;;
57752;SDS011;43583;53.132;6.574;2022-09-12T11:27:43;16.85;;;10.05;;
57752;SDS011;43583;53.132;6.574;2022-09-12T11:30:54;13.77;;;9.23;;
57752;SDS011;43583;53.132;6.574;2022-09-12T11:33:44;8.57;;;6.32;;
57752;SDS011;43583;53.132;6.574;2022-09-12T11:36:15;11.18;;;6.57;;
57752;SDS011;43583;53.132;6.574;2022-09-12T11:38:55;7.43;;;5.20;;
57752;SDS011;43583;53.132;6.574;2022-09-12T11:41:44;9.50;;;6.15;;
57752;SDS011;43583;53.132;6.574;2022-09-12T11:44:21;9.77;;;5.75;;
57752;SDS011;43583;53.132;6.574;2022-09-12T11:46:50;13.38;;;7.32;;
57752;SDS011;43583;53.132;6.574;2022-09-12T11:49:17;8.73;;;6.22;;
57752;SDS011;43583;53.132;6.574;2022-09-12T11:54:37;10.65;;;6.90;;
57752;SDS011;43583;53.132;6.574;2022-09-12T11:59:57;11.50;;;6.57;;
57752;SDS011;43583;53.132;6.574;2022-09-12T12:05:25;7.15;;;4.90;;
57752;SDS011;43583;53.132;6.574;2022-09-12T12:07:58;11.68;;;5.43;;
57752;SDS011;43583;53.132;6.574;2022-09-12T12:15:27;6.22;;;4.00;;
57752;SDS011;43583;53.132;6.574;2022-09-12T12:18:05;7.38;;;4.70;;
57752;SDS011;43583;53.132;6.574;2022-09-12T12:20:32;5.28;;;3.45;;
57752;SDS011;43583;53.132;6.574;2022-09-12T12:22:58;5.35;;;2.92;;
57752;SDS011;43583;53.132;6.574;2022-09-12T12:25:40;5.20;;;3.53;;
57752;SDS011;43583;53.132;6.574;2022-09-12T12:28:59;9.85;;;5.07;;
57752;SDS011;43583;53.132;6.574;2022-09-12T12:31:08;5.13;;;3.65;;
57752;SDS011;43583;53.132;6.574;2022-09-12T12:36:04;4.97;;;3.67;;
57752;SDS011;43583;53.132;6.574;2022-09-12T12:38:33;6.28;;;3.45;;
57752;SDS011;43583;53.132;6.574;2022-09-12T12:43:41;4.03;;;2.58;;
57752;SDS011;43583;53.132;6.574;2022-09-12T12:46:08;6.18;;;3.28;;
57752;SDS011;43583;53.132;6.574;2022-09-12T12:48:42;3.50;;;1.80;;
57752;SDS011;43583;53.132;6.574;2022-09-12T12:53:59;3.95;;;1.90;;
57752;SDS011;43583;53.132;6.574;2022-09-12T12:56:28;3.15;;;2.22;;
57752;SDS011;43583;53.132;6.574;2022-09-12T12:59:19;2.80;;;2.08;;
57752;SDS011;43583;53.132;6.574;2022-09-12T13:01:48;5.40;;;2.45;;
57752;SDS011;43583;53.132;6.574;2022-09-12T13:04:17;3.25;;;2.42;;
57752;SDS011;43583;53.132;6.574;2022-09-12T13:06:53;3.15;;;1.90;;
57752;SDS011;43583;53.132;6.574;2022-09-12T13:09:44;3.58;;;1.42;;
57752;SDS011;43583;53.132;6.574;2022-09-12T13:12:20;2.17;;;0.98;;
57752;SDS011;43583;53.132;6.574;2022-09-12T13:15:02;3.53;;;1.95;;
57752;SDS011;43583;53.132;6.574;2022-09-12T13:17:33;4.32;;;2.20;;
57752;SDS011;43583;53.132;6.574;2022-09-12T13:20:17;3.35;;;2.03;;
57752;SDS011;43583;53.132;6.574;2022-09-12T13:22:47;3.10;;;1.85;;
57752;SDS011;43583;53.132;6.574;2022-09-12T13:28:00;3.15;;;1.70;;
57752;SDS011;43583;53.132;6.574;2022-09-12T13:30:36;4.00;;;2.10;;
57752;SDS011;43583;53.132;6.574;2022-09-12T13:33:07;7.43;;;2.45;;
57752;SDS011;43583;53.132;6.574;2022-09-12T13:38:16;6.28;;;2.17;;
57752;SDS011;43583;53.132;6.574;2022-09-12T13:44:01;4.10;;;2.28;;
57752;SDS011;43583;53.132;6.574;2022-09-12T13:46:29;5.30;;;1.83;;
57752;SDS011;43583;53.132;6.574;2022-09-12T13:48:58;2.78;;;1.25;;
57752;SDS011;43583;53.132;6.574;2022-09-12T13:51:30;3.55;;;1.42;;
57752;SDS011;43583;53.132;6.574;2022-09-12T13:53:57;2.28;;;1.48;;
57752;SDS011;43583;53.132;6.574;2022-09-12T13:56:26;1.70;;;1.23;;
57752;SDS011;43583;53.132;6.574;2022-09-12T13:58:56;2.50;;;1.30;;
57752;SDS011;43583;53.132;6.574;2022-09-12T14:01:34;3.15;;;1.63;;
57752;SDS011;43583;53.132;6.574;2022-09-12T14:07:21;2.22;;;1.25;;
57752;SDS011;43583;53.132;6.574;2022-09-12T14:09:55;3.38;;;1.70;;
57752;SDS011;43583;53.132;6.574;2022-09-12T14:12:23;3.45;;;1.30;;
57752;SDS011;43583;53.132;6.574;2022-09-12T14:14:55;2.67;;;1.23;;
57752;SDS011;43583;53.132;6.574;2022-09-12T14:17:31;2.28;;;1.55;;
57752;SDS011;43583;53.132;6.574;2022-09-12T14:20:07;2.60;;;1.20;;
57752;SDS011;43583;53.132;6.574;2022-09-12T14:22:38;2.45;;;1.65;;
57752;SDS011;43583;53.132;6.574;2022-09-12T14:25:05;2.28;;;1.23;;
57752;SDS011;43583;53.132;6.574;2022-09-12T14:27:40;3.15;;;1.58;;
57752;SDS011;43583;53.132;6.574;2022-09-12T14:35:34;4.03;;;2.55;;
57752;SDS011;43583;53.132;6.574;2022-09-12T14:38:07;4.95;;;3.15;;
57752;SDS011;43583;53.132;6.574;2022-09-12T14:40:47;5.55;;;3.63;;
57752;SDS011;43583;53.132;6.574;2022-09-12T14:43:28;4.65;;;3.65;;
57752;SDS011;43583;53.132;6.574;2022-09-12T14:48:59;7.22;;;4.88;;
57752;SDS011;43583;53.132;6.574;2022-09-12T14:51:32;6.00;;;4.18;;
57752;SDS011;43583;53.132;6.574;2022-09-12T14:54:01;5.95;;;4.75;;
57752;SDS011;43583;53.132;6.574;2022-09-12T14:56:37;6.30;;;4.07;;
57752;SDS011;43583;53.132;6.574;2022-09-12T15:04:44;5.75;;;4.10;;
57752;SDS011;43583;53.132;6.574;2022-09-12T15:10:14;5.72;;;4.13;;
57752;SDS011;43583;53.132;6.574;2022-09-12T15:12:50;7.40;;;4.28;;
57752;SDS011;43583;53.132;6.574;2022-09-12T15:15:34;5.60;;;3.93;;
57752;SDS011;43583;53.132;6.574;2022-09-12T15:18:00;8.80;;;4.28;;
57752;SDS011;43583;53.132;6.574;2022-09-12T15:20:26;4.43;;;3.42;;
57752;SDS011;43583;53.132;6.574;2022-09-12T15:22:52;5.28;;;3.75;;
57752;SDS011;43583;53.132;6.574;2022-09-12T15:25:18;5.72;;;3.80;;
57752;SDS011;43583;53.132;6.574;2022-09-12T15:27:44;5.32;;;3.47;;
57752;SDS011;43583;53.132;6.574;2022-09-12T15:30:11;4.70;;;3.25;;
57752;SDS011;43583;53.132;6.574;2022-09-12T15:32:37;4.85;;;4.35;;
57752;SDS011;43583;53.132;6.574;2022-09-12T15:35:09;3.42;;;2.92;;
57752;SDS011;43583;53.132;6.574;2022-09-12T15:37:42;3.92;;;3.40;;
57752;SDS011;43583;53.132;6.574;2022-09-12T15:40:08;4.47;;;3.17;;
57752;SDS011;43583;53.132;6.574;2022-09-12T15:42:35;3.90;;;3.50;;
57752;SDS011;43583;53.132;6.574;2022-09-12T15:45:01;3.88;;;2.72;;
57752;SDS011;43583;53.132;6.574;2022-09-12T15:47:28;4.35;;;2.65;;
57752;SDS011;43583;53.132;6.574;2022-09-12T15:49:54;4.32;;;2.55;;
57752;SDS011;43583;53.132;6.574;2022-09-12T15:52:19;5.00;;;2.70;;
57752;SDS011;43583;53.132;6.574;2022-09-12T15:54:45;4.05;;;2.88;;
57752;SDS011;43583;53.132;6.574;2022-09-12T15:57:10;2.20;;;1.90;;
57752;SDS011;43583;53.132;6.574;2022-09-12T15:59:36;4.65;;;2.55;;
57752;SDS011;43583;53.132;6.574;2022-09-12T16:02:01;2.42;;;2.00;;
57752;SDS011;43583;53.132;6.574;2022-09-12T16:04:28;3.08;;;1.75;;
57752;SDS011;43583;53.132;6.574;2022-09-12T16:06:54;2.67;;;1.95;;
57752;SDS011;43583;53.132;6.574;2022-09-12T16:09:20;2.22;;;2.03;;
57752;SDS011;43583;53.132;6.574;2022-09-12T16:11:46;3.28;;;1.70;;
57752;SDS011;43583;53.132;6.574;2022-09-12T16:14:13;2.30;;;1.33;;
57752;SDS011;43583;53.132;6.574;2022-09-12T16:16:40;2.30;;;1.60;;
57752;SDS011;43583;53.132;6.574;2022-09-12T16:19:06;2.15;;;1.92;;
57752;SDS011;43583;53.132;6.574;2022-09-12T16:21:33;1.85;;;1.05;;
57752;SDS011;43583;53.132;6.574;2022-09-12T16:24:00;3.47;;;1.77;;
57752;SDS011;43583;53.132;6.574;2022-09-12T16:26:26;2.78;;;1.30;;
57752;SDS011;43583;53.132;6.574;2022-09-12T16:28:55;1.20;;;0.77;;
57752;SDS011;43583;53.132;6.574;2022-09-12T16:31:21;1.88;;;1.33;;
57752;SDS011;43583;53.132;6.574;2022-09-12T16:33:47;2.50;;;1.38;;
57752;SDS011;43583;53.132;6.574;2022-09-12T16:36:13;1.73;;;1.17;;
57752;SDS011;43583;53.132;6.574;2022-09-12T16:38:42;2.85;;;1.13;;
57752;SDS011;43583;53.132;6.574;2022-09-12T16:41:09;3.67;;;2.10;;
57752;SDS011;43583;53.132;6.574;2022-09-12T16:43:35;2.35;;;1.02;;
57752;SDS011;43583;53.132;6.574;2022-09-12T16:48:34;5.40;;;1.15;;
57752;SDS011;43583;53.132;6.574;2022-09-12T16:51:02;1.40;;;0.85;;
57752;SDS011;43583;53.132;6.574;2022-09-12T16:53:29;1.52;;;0.90;;
57752;SDS011;43583;53.132;6.574;2022-09-12T16:55:55;1.73;;;0.80;;
57752;SDS011;43583;53.132;6.574;2022-09-12T16:58:21;2.40;;;1.00;;
57752;SDS011;43583;53.132;6.574;2022-09-12T17:00:47;1.30;;;0.90;;
57752;SDS011;43583;53.132;6.574;2022-09-12T17:03:12;1.65;;;0.70;;
57752;SDS011;43583;53.132;6.574;2022-09-12T17:05:40;2.22;;;0.75;;
57752;SDS011;43583;53.132;6.574;2022-09-12T17:08:06;2.97;;;0.80;;
57752;SDS011;43583;53.132;6.574;2022-09-12T17:10:33;1.20;;;0.90;;
57752;SDS011;43583;53.132;6.574;2022-09-12T17:13:00;2.08;;;1.20;;
57752;SDS011;43583;53.132;6.574;2022-09-12T17:15:26;1.52;;;0.90;;
57752;SDS011;43583;53.132;6.574;2022-09-12T17:17:52;2.55;;;0.70;;
57752;SDS011;43583;53.132;6.574;2022-09-12T17:20:17;3.38;;;1.17;;
57752;SDS011;43583;53.132;6.574;2022-09-12T17:22:43;1.83;;;1.00;;
57752;SDS011;43583;53.132;6.574;2022-09-12T17:25:08;1.10;;;0.80;;
57752;SDS011;43583;53.132;6.574;2022-09-12T17:27:34;2.33;;;1.00;;
57752;SDS011;43583;53.132;6.574;2022-09-12T17:30:00;2.30;;;0.95;;
57752;SDS011;43583;53.132;6.574;2022-09-12T17:32:26;2.35;;;1.00;;